Time;durP1;ratioP1;P1;durP2;ratioP2;P2;SDS_P1;SDS_P2;PMS_P1;PMS_P2;Temp;Humidity;BMP_temperature;BMP_pressure;BME280_temperature;BME280_humidity;BME280_pressure;Samples;Min_cycle;Max_cycle;Signal;HPM_P1;HPM_P2
2022/05/11 00:00:23;;;;;;;;;;;;;;;14.44;100.00;95960.69;1034861;28;19914;-71
2022/05/11 00:00:53;;;;;;;;;;;;;;;14.43;100.00;95959.13;1038943;28;19917;-72
2022/05/11 00:01:26;;;;;;;;;;;;;;;14.42;100.00;95954.91;1036044;28;20282;-73
2022/05/11 00:01:56;;;;;;;;;;;;;;;14.41;100.00;95955.97;1034891;28;20283;-72
2022/05/11 00:02:26;;;;;;;;;;;;;;;14.42;100.00;95957.53;1034633;28;19913;-73
2022/05/11 00:02:57;;;;;;;;;;;;;;;14.41;100.00;95959.41;1030766;28;20672;-72
2022/05/11 00:03:27;;;;;;;;;;;;;;;14.41;100.00;95959.41;1034773;28;19973;-72
2022/05/11 00:03:58;;;;;;;;;;;;;;;14.38;100.00;95963.41;1034984;28;19924;-72
2022/05/11 00:04:29;;;;;;;;;;;;;;;14.41;100.00;95958.63;1035015;28;19921;-73
2022/05/11 00:04:59;;;;;;;;;;;;;;;14.41;100.00;95955.97;1034590;28;20552;-72
2022/05/11 00:05:30;;;;;;;;;;;;;;;14.40;100.00;95960.47;1031006;28;19953;-72
2022/05/11 00:06:00;;;;;;;;;;;;;;;14.38;100.00;95952.03;1026780;28;19918;-72
2022/05/11 00:06:30;;;;;;;;;;;;;;;14.36;100.00;95959.47;1026748;28;20563;-72
2022/05/11 00:07:01;;;;;;;;;;;;;;;14.34;100.00;95951.81;1030944;28;19961;-73
2022/05/11 00:07:31;;;;;;;;;;;;;;;14.33;100.00;95955.53;1035040;28;19921;-73
2022/05/11 00:08:02;;;;;;;;;;;;;;;14.34;100.00;95961.59;1039039;28;20486;-74
2022/05/11 00:08:32;;;;;;;;;;;;;;;14.34;100.00;95961.59;1038277;28;19917;-73
2022/05/11 00:09:03;;;;;;;;;;;;;;;14.31;100.00;95957.66;1038936;28;19917;-73
2022/05/11 00:09:33;;;;;;;;;;;;;;;14.31;100.00;95962.94;1034774;28;20012;-73
2022/05/11 00:10:11;;;;;;;;;;;;;;;14.29;100.00;95964.28;1038517;28;20465;-72
2022/05/11 00:10:41;;;;;;;;;;;;;;;14.30;100.00;95956.09;1030608;28;19957;-74
2022/05/11 00:11:11;;;;;;;;;;;;;;;14.31;100.00;95952.38;1030673;28;19971;-72
2022/05/11 00:11:42;;;;;;;;;;;;;;;14.30;100.00;95955.31;1030666;28;19973;-73
2022/05/11 00:12:12;;;;;;;;;;;;;;;14.31;100.00;95956.88;1031992;28;19980;-72
2022/05/11 00:12:43;;;;;;;;;;;;;;;14.29;100.00;95957.16;1039085;28;19921;-73
2022/05/11 00:13:13;;;;;;;;;;;;;;;14.29;100.00;95954.53;1042778;28;19920;-72
2022/05/11 00:13:44;;;;;;;;;;;;;;;14.30;100.00;95961.38;1038951;28;19983;-74
2022/05/11 00:14:14;;;;;;;;;;;;;;;14.33;100.00;95960.81;1038984;28;19932;-72
2022/05/11 00:14:45;;;;;;;;;;;;;;;14.31;100.00;95957.66;1035031;28;20023;-73
2022/05/11 00:15:20;;;;;;;;;;;;;;;14.30;100.00;95955.31;1034591;28;19955;-72
2022/05/11 00:15:50;;;;;;;;;;;;;;;14.28;100.00;95952.94;1034847;28;20028;-73
2022/05/11 00:16:20;;;;;;;;;;;;;;;14.25;100.00;95953.50;1035443;28;19921;-73
2022/05/11 00:16:51;;;;;;;;;;;;;;;14.24;100.00;95957.19;1033964;28;19921;-72
2022/05/11 00:17:22;;;;;;;;;;;;;;;14.26;100.00;95949.03;1030860;28;19922;-72
2022/05/11 00:17:52;;;;;;;;;;;;;;;14.05;100.00;95924.66;1031104;28;19922;-73
2022/05/11 00:18:22;;;;;;;;;;;;;;;14.22;100.00;95954.06;1034895;28;19924;-73
2022/05/11 00:18:53;;;;;;;;;;;;;;;14.21;100.00;95957.75;1035799;28;20024;-72
2022/05/11 00:19:23;;;;;;;;;;;;;;;14.21;100.00;95955.13;1030754;28;20540;-72
2022/05/11 00:19:53;;;;;;;;;;;;;;;14.22;100.00;95953.25;1034133;28;19922;-72
2022/05/11 00:20:24;;;;;;;;;;;;;;;14.20;100.00;95950.91;1038549;28;19921;-73
2022/05/11 00:20:54;;;;;;;;;;;;;;;14.20;100.00;95960.69;1034760;28;19913;-72
2022/05/11 00:21:24;;;;;;;;;;;;;;;14.20;100.00;95956.19;1030655;28;20380;-72
2022/05/11 00:21:57;;;;;;;;;;;;;;;14.20;100.00;95950.13;1030719;28;19918;-72
2022/05/11 00:22:27;;;;;;;;;;;;;;;14.18;100.00;95960.16;1027118;28;19922;-73
2022/05/11 00:22:58;;;;;;;;;;;;;;;14.16;100.00;95960.47;1022936;28;19919;-73
2022/05/11 00:23:29;;;;;;;;;;;;;;;14.16;100.00;95952.53;1026464;28;19918;-73
2022/05/11 00:23:59;;;;;;;;;;;;;;;14.16;100.00;95949.91;1022863;28;19930;-72
2022/05/11 00:24:30;;;;;;;;;;;;;;;14.15;100.00;95958.88;1026926;28;19985;-74
2022/05/11 00:25:00;;;;;;;;;;;;;;;14.15;100.00;95959.69;1026873;28;20317;-73
2022/05/11 00:25:31;;;;;;;;;;;;;;;14.15;100.00;95951.75;1026820;28;20774;-73
2022/05/11 00:26:01;;;;;;;;;;;;;;;14.16;100.00;95960.47;1030907;28;20452;-72
2022/05/11 00:26:31;;;;;;;;;;;;;;;14.15;100.00;95959.69;1034740;28;20346;-73
2022/05/11 00:27:02;;;;;;;;;;;;;;;14.14;100.00;95954.66;1040635;28;20294;-72
2022/05/11 00:27:32;;;;;;;;;;;;;;;14.14;100.00;95954.66;1042930;28;19920;-73
2022/05/11 00:28:02;;;;;;;;;;;;;;;14.14;100.00;95957.31;1033292;28;20374;-73
2022/05/11 00:28:33;;;;;;;;;;;;;;;14.13;100.00;95950.47;1034576;28;20394;-72
2022/05/11 00:29:03;;;;;;;;;;;;;;;14.13;100.00;95955.75;1030995;28;19921;-73
2022/05/11 00:29:34;;;;;;;;;;;;;;;14.12;100.00;95952.31;1030166;28;19964;-72
2022/05/11 00:30:05;;;;;;;;;;;;;;;14.13;100.00;95951.25;1038894;28;19977;-72
2022/05/11 00:30:35;;;;;;;;;;;;;;;14.12;100.00;95954.19;1038835;28;19928;-73
2022/05/11 00:31:05;;;;;;;;;;;;;;;14.13;100.00;95956.53;1043346;28;19928;-73
2022/05/11 00:31:35;;;;;;;;;;;;;;;14.13;100.00;95958.38;1043126;28;19921;-72
2022/05/11 00:32:06;;;;;;;;;;;;;;;14.12;100.00;95959.47;1043213;28;19924;-74
2022/05/11 00:32:37;;;;;;;;;;;;;;;14.11;100.00;95956.00;1043284;28;20339;-73
2022/05/11 00:33:07;;;;;;;;;;;;;;;14.11;100.00;95955.22;1039013;28;19923;-72
2022/05/11 00:33:37;;;;;;;;;;;;;;;14.09;100.00;95955.50;1030468;28;19925;-74
2022/05/11 00:34:07;;;;;;;;;;;;;;;14.08;100.00;95953.13;1030801;28;19924;-71
2022/05/11 00:34:38;;;;;;;;;;;;;;;14.08;100.00;95956.59;1026743;28;19980;-71
2022/05/11 00:35:08;;;;;;;;;;;;;;;14.07;100.00;95955.00;1026873;28;19929;-73
2022/05/11 00:35:39;;;;;;;;;;;;;;;14.07;100.00;95951.56;1034861;28;19921;-73
2022/05/11 00:36:11;;;;;;;;;;;;;;;14.05;100.00;95956.34;1038882;28;19955;-73
2022/05/11 00:36:41;;;;;;;;;;;;;;;14.07;100.00;95954.22;1038751;28;19914;-73
2022/05/11 00:37:11;;;;;;;;;;;;;;;14.08;100.00;95955.78;1038346;28;19925;-73
2022/05/11 00:37:41;;;;;;;;;;;;;;;14.07;100.00;95956.84;1038708;28;19921;-72
2022/05/11 00:38:12;;;;;;;;;;;;;;;14.07;100.00;95951.56;1038743;28;20039;-72
2022/05/11 00:38:44;;;;;;;;;;;;;;;14.06;100.00;95952.66;1038792;28;19924;-73
2022/05/11 00:39:15;;;;;;;;;;;;;;;14.06;100.00;95948.16;1038721;28;19913;-72
2022/05/11 00:39:45;;;;;;;;;;;;;;;14.08;100.00;95953.13;1033961;28;19922;-72
2022/05/11 00:40:16;;;;;;;;;;;;;;;13.88;100.00;95925.91;1030350;28;19913;-72
2022/05/11 00:40:54;;;;;;;;;;;;;;;14.07;100.00;95949.72;1030764;28;19964;-72
2022/05/11 00:41:24;;;;;;;;;;;;;;;14.07;100.00;95956.84;1023856;28;19910;-72
2022/05/11 00:41:55;;;;;;;;;;;;;;;14.06;100.00;95948.16;1022563;29;20373;-72
2022/05/11 00:42:25;;;;;;;;;;;;;;;14.06;100.00;95950.00;1025498;28;19911;-73
2022/05/11 00:42:58;;;;;;;;;;;;;;;14.07;100.00;95948.94;1030642;28;19914;-72
2022/05/11 00:43:32;;;;;;;;;;;;;;;14.06;100.00;95952.66;1026665;28;19989;-73
2022/05/11 00:44:04;;;;;;;;;;;;;;;14.05;100.00;95953.69;1028266;28;20089;-72
2022/05/11 00:44:35;;;;;;;;;;;;;;;14.04;100.00;95947.63;1034645;28;19937;-72
2022/05/11 00:45:05;;;;;;;;;;;;;;;14.04;100.00;95952.91;1031638;28;20433;-72
2022/05/11 00:45:36;;;;;;;;;;;;;;;14.04;100.00;95947.63;1030834;28;20312;-72
2022/05/11 00:46:16;;;;;;;;;;;;;;;14.03;100.00;95948.72;1030406;28;19920;-72
2022/05/11 00:46:55;;;;;;;;;;;;;;;14.02;100.00;95943.72;1026695;28;19973;-72
2022/05/11 00:47:27;;;;;;;;;;;;;;;14.02;100.00;95949.00;1030504;28;19963;-73
2022/05/11 00:47:58;;;;;;;;;;;;;;;14.01;100.00;95953.47;1026733;28;20330;-73
2022/05/11 00:49:33;;;;;;;;;;;;;;;14.04;100.00;95946.84;1031240;28;20363;-72
2022/05/11 00:50:08;;;;;;;;;;;;;;;14.02;100.00;95943.72;1030905;28;19916;-73
2022/05/11 00:50:38;;;;;;;;;;;;;;;14.02;100.00;95941.09;1032216;28;19996;-72
2022/05/11 00:51:10;;;;;;;;;;;;;;;14.02;100.00;95943.72;1030625;28;19914;-72
2022/05/11 00:51:45;;;;;;;;;;;;;;;14.05;100.00;95943.13;1026551;28;19906;-72
2022/05/11 00:52:18;;;;;;;;;;;;;;;14.05;100.00;95945.78;1031316;28;19909;-72
2022/05/11 00:53:11;;;;;;;;;;;;;;;14.04;100.00;95952.13;1030611;28;20005;-73
2022/05/11 00:53:42;;;;;;;;;;;;;;;14.02;100.00;95943.72;1026616;28;20032;-72
2022/05/11 00:54:15;;;;;;;;;;;;;;;14.00;100.00;95946.63;1018459;28;19961;-72
2022/05/11 00:54:47;;;;;;;;;;;;;;;14.04;100.00;95946.84;1018739;29;19922;-73
2022/05/11 00:55:27;;;;;;;;;;;;;;;14.03;100.00;95940.00;1016639;29;19921;-72
2022/05/11 00:55:59;;;;;;;;;;;;;;;14.02;100.00;95943.72;1028950;28;19910;-73
2022/05/11 00:56:30;;;;;;;;;;;;;;;14.02;100.00;95941.09;1030370;28;19917;-72
2022/05/11 00:57:01;;;;;;;;;;;;;;;14.02;100.00;95938.44;1026903;28;19997;-73
2022/05/11 00:57:50;;;;;;;;;;;;;;;14.01;100.00;95942.13;1028381;28;19937;-73
2022/05/11 00:58:27;;;;;;;;;;;;;;;14.00;100.00;95941.34;1033244;28;19909;-72
2022/05/11 00:58:58;;;;;;;;;;;;;;;14.00;100.00;95940.56;1029951;28;19937;-72
2022/05/11 00:59:34;;;;;;;;;;;;;;;13.98;100.00;95940.03;1026042;28;19938;-74
2022/05/11 01:00:08;;;;;;;;;;;;;;;13.98;100.00;95940.03;1022619;29;20495;-73
2022/05/11 01:00:38;;;;;;;;;;;;;;;13.97;100.00;95941.91;1023925;28;20001;-72
2022/05/11 01:01:09;;;;;;;;;;;;;;;13.97;100.00;95939.25;1026645;28;19910;-73
2022/05/11 01:01:39;;;;;;;;;;;;;;;13.98;100.00;95937.41;1030473;28;19992;-72
2022/05/11 01:02:09;;;;;;;;;;;;;;;13.98;100.00;95940.03;1030648;28;20373;-73
2022/05/11 01:02:40;;;;;;;;;;;;;;;13.97;100.00;95941.91;1034592;28;19909;-72
2022/05/11 01:03:14;;;;;;;;;;;;;;;13.95;100.00;95932.69;1028488;28;19914;-72
2022/05/11 01:03:46;;;;;;;;;;;;;;;13.96;100.00;95934.28;1026696;28;19989;-73
2022/05/11 01:04:18;;;;;;;;;;;;;;;13.94;100.00;95936.41;1026684;28;20026;-72
2022/05/11 01:04:48;;;;;;;;;;;;;;;13.95;100.00;95937.97;1029701;28;19915;-74
2022/05/11 01:05:18;;;;;;;;;;;;;;;13.95;100.00;95935.31;1030847;28;19910;-74
2022/05/11 01:05:49;;;;;;;;;;;;;;;13.94;100.00;95931.13;1030785;28;19933;-72
2022/05/11 01:06:19;;;;;;;;;;;;;;;13.94;100.00;95937.19;1030619;28;19917;-72
2022/05/11 01:06:50;;;;;;;;;;;;;;;13.93;100.00;95934.84;1026810;28;19910;-73
2022/05/11 01:07:20;;;;;;;;;;;;;;;13.94;100.00;95931.13;1034371;28;19972;-73
2022/05/11 01:07:51;;;;;;;;;;;;;;;13.93;100.00;95935.63;1034782;28;20338;-73
2022/05/11 01:08:22;;;;;;;;;;;;;;;13.91;100.00;95938.50;1034873;28;20020;-72
2022/05/11 01:08:52;;;;;;;;;;;;;;;13.90;100.00;95942.22;1034772;28;19901;-72
2022/05/11 01:09:25;;;;;;;;;;;;;;;13.90;100.00;95942.22;1022984;28;19911;-72
2022/05/11 01:09:56;;;;;;;;;;;;;;;13.89;100.00;95939.88;1024716;28;19906;-72
2022/05/11 01:10:27;;;;;;;;;;;;;;;13.89;100.00;95943.31;1023068;28;20414;-73
2022/05/11 01:10:58;;;;;;;;;;;;;;;13.89;100.00;95937.25;1018630;29;19938;-73
2022/05/11 01:11:29;;;;;;;;;;;;;;;13.90;100.00;95944.88;1022609;28;19911;-72
2022/05/11 01:11:59;;;;;;;;;;;;;;;13.89;100.00;95935.38;1022948;28;20188;-74
2022/05/11 01:12:35;;;;;;;;;;;;;;;13.90;100.00;95931.69;1022655;29;19942;-73
2022/05/11 01:13:06;;;;;;;;;;;;;;;13.88;100.00;95933.81;1018781;29;19907;-73
2022/05/11 01:13:36;;;;;;;;;;;;;;;13.88;100.00;95936.47;1026784;28;19910;-72
2022/05/11 01:14:07;;;;;;;;;;;;;;;13.88;100.00;95938.28;1030715;28;19910;-73
2022/05/11 01:14:39;;;;;;;;;;;;;;;13.88;100.00;95931.19;1030527;28;19909;-72
2022/05/11 01:15:10;;;;;;;;;;;;;;;13.88;100.00;95928.56;1027917;28;19941;-73
2022/05/11 01:15:40;;;;;;;;;;;;;;;13.88;100.00;95935.66;1026826;28;19937;-73
2022/05/11 01:16:14;;;;;;;;;;;;;;;13.87;100.00;95934.88;1026076;28;19980;-73
2022/05/11 01:16:46;;;;;;;;;;;;;;;13.87;100.00;95936.72;1019163;28;19919;-73
2022/05/11 01:17:18;;;;;;;;;;;;;;;13.87;100.00;95937.50;1025088;28;19918;-72
2022/05/11 01:17:49;;;;;;;;;;;;;;;13.86;100.00;95933.31;1031824;28;19925;-73
2022/05/11 01:18:20;;;;;;;;;;;;;;;13.87;100.00;95931.44;1035460;28;20393;-72
2022/05/11 01:18:50;;;;;;;;;;;;;;;13.87;100.00;95928.81;1038993;28;20382;-73
2022/05/11 01:19:27;;;;;;;;;;;;;;;13.86;100.00;95925.38;1034839;28;20511;-73
2022/05/11 01:19:57;;;;;;;;;;;;;;;13.87;100.00;95929.59;1034080;28;19961;-73
2022/05/11 01:20:28;;;;;;;;;;;;;;;13.86;100.00;95933.31;1034182;28;20655;-72
2022/05/11 01:20:58;;;;;;;;;;;;;;;13.87;100.00;95934.88;1031989;28;19914;-73
2022/05/11 01:21:33;;;;;;;;;;;;;;;13.87;100.00;95932.22;1034883;28;19916;-74
2022/05/11 01:22:05;;;;;;;;;;;;;;;13.86;100.00;95935.16;1039012;28;19943;-72
2022/05/11 01:22:41;;;;;;;;;;;;;;;13.87;100.00;95934.09;1038011;28;19917;-72
2022/05/11 01:23:12;;;;;;;;;;;;;;;13.87;100.00;95931.44;1030637;28;19925;-72
2022/05/11 01:23:55;;;;;;;;;;;;;;;13.86;100.00;95930.66;1033526;28;19914;-73
2022/05/11 01:24:25;;;;;;;;;;;;;;;13.87;100.00;95931.44;1033178;28;19965;-72
2022/05/11 01:24:59;;;;;;;;;;;;;;;13.87;100.00;95932.22;1036893;28;19917;-74
2022/05/11 01:25:29;;;;;;;;;;;;;;;13.87;100.00;95932.22;1036544;28;19924;-73
2022/05/11 01:26:00;;;;;;;;;;;;;;;13.87;100.00;95931.44;1030767;28;19921;-73
2022/05/11 01:26:33;;;;;;;;;;;;;;;13.89;100.00;95934.59;1030679;28;19925;-74
2022/05/11 01:27:22;;;;;;;;;;;;;;;13.88;100.00;95931.19;1034699;28;20304;-73
2022/05/11 01:27:59;;;;;;;;;;;;;;;13.80;100.00;95920.44;1030599;28;19929;-71
2022/05/11 01:28:30;;;;;;;;;;;;;;;13.89;100.00;95932.75;1035001;28;20423;-72
2022/05/11 01:29:00;;;;;;;;;;;;;;;13.88;100.00;95928.56;1034745;28;19921;-73
2022/05/11 01:29:30;;;;;;;;;;;;;;;13.88;100.00;95933.00;1031496;28;20456;-72
2022/05/11 01:30:05;;;;;;;;;;;;;;;13.89;100.00;95939.88;1029921;28;20426;-72
2022/05/11 01:30:35;;;;;;;;;;;;;;;13.89;100.00;95927.47;1030707;28;20039;-74
2022/05/11 01:31:06;;;;;;;;;;;;;;;13.89;100.00;95930.13;1035219;28;20377;-74
2022/05/11 01:31:37;;;;;;;;;;;;;;;13.89;100.00;95932.75;1039410;28;19940;-72
2022/05/11 01:32:07;;;;;;;;;;;;;;;13.89;100.00;95932.75;1042625;28;20329;-72
2022/05/11 01:32:37;;;;;;;;;;;;;;;13.90;100.00;95936.16;1042681;28;19959;-72
2022/05/11 01:33:08;;;;;;;;;;;;;;;13.89;100.00;95935.38;1034846;28;19964;-73
2022/05/11 01:33:40;;;;;;;;;;;;;;;13.88;100.00;95933.81;1030351;28;19922;-72
2022/05/11 01:34:10;;;;;;;;;;;;;;;13.90;100.00;95936.94;1026528;28;19922;-73
2022/05/11 01:34:41;;;;;;;;;;;;;;;13.90;100.00;95930.91;1022961;28;20025;-73
2022/05/11 01:35:11;;;;;;;;;;;;;;;13.89;100.00;95932.75;1026710;28;20650;-73
2022/05/11 01:35:45;;;;;;;;;;;;;;;13.89;100.00;95940.66;1030260;28;20004;-72
2022/05/11 01:36:18;;;;;;;;;;;;;;;13.88;100.00;95933.00;1031560;28;20383;-72
2022/05/11 01:36:53;;;;;;;;;;;;;;;13.88;100.00;95927.72;1038622;28;19985;-73
2022/05/11 01:37:23;;;;;;;;;;;;;;;13.88;100.00;95925.09;1041626;28;19917;-73
2022/05/11 01:37:57;;;;;;;;;;;;;;;13.88;100.00;95935.66;1030709;28;19925;-72
2022/05/11 01:38:27;;;;;;;;;;;;;;;13.86;100.00;95930.66;1030653;28;19919;-72
2022/05/11 01:38:59;;;;;;;;;;;;;;;13.86;100.00;95924.59;1032942;28;19910;-73
2022/05/11 01:39:29;;;;;;;;;;;;;;;13.86;100.00;95935.94;1031316;28;19930;-73
2022/05/11 01:40:00;;;;;;;;;;;;;;;13.86;100.00;95929.88;1034480;28;19921;-73
2022/05/11 01:40:33;;;;;;;;;;;;;;;13.84;100.00;95939.91;1035969;28;19926;-72
2022/05/11 01:41:03;;;;;;;;;;;;;;;13.84;100.00;95932.00;1038528;28;19917;-72
2022/05/11 01:41:40;;;;;;;;;;;;;;;13.83;100.00;95930.44;1034643;28;20007;-72
2022/05/11 01:42:13;;;;;;;;;;;;;;;13.82;100.00;95929.66;1032533;28;20399;-73
2022/05/11 01:42:43;;;;;;;;;;;;;;;13.82;100.00;95937.56;1038656;28;19921;-72
2022/05/11 01:43:14;;;;;;;;;;;;;;;13.80;100.00;95939.69;1038814;28;20524;-72
2022/05/11 01:43:45;;;;;;;;;;;;;;;13.81;100.00;95938.63;1034874;28;19917;-72
2022/05/11 01:44:16;;;;;;;;;;;;;;;13.82;100.00;95939.41;1034681;28;20375;-72
2022/05/11 01:44:46;;;;;;;;;;;;;;;13.82;100.00;95934.94;1027734;28;19977;-72
2022/05/11 01:45:16;;;;;;;;;;;;;;;13.82;100.00;95939.41;1030935;28;20328;-72
2022/05/11 01:45:47;;;;;;;;;;;;;;;13.81;100.00;95935.97;1034708;28;20318;-72
2022/05/11 01:46:17;;;;;;;;;;;;;;;13.80;100.00;95933.63;1039031;28;19928;-72
2022/05/11 01:46:49;;;;;;;;;;;;;;;13.79;100.00;95935.47;1039238;28;20496;-73
2022/05/11 01:47:21;;;;;;;;;;;;;;;13.78;100.00;95935.75;1040147;28;19920;-72
2022/05/11 01:47:55;;;;;;;;;;;;;;;13.76;100.00;95941.31;1034597;28;19917;-73
2022/05/11 01:48:25;;;;;;;;;;;;;;;13.77;100.00;95942.09;1034722;28;19921;-72
2022/05/11 01:48:55;;;;;;;;;;;;;;;13.78;100.00;95935.75;1034308;28;20438;-72
2022/05/11 01:49:27;;;;;;;;;;;;;;;13.78;100.00;95941.03;1031243;28;19922;-72
2022/05/11 01:49:58;;;;;;;;;;;;;;;13.75;100.00;95939.75;1025907;28;20411;-73
2022/05/11 01:50:28;;;;;;;;;;;;;;;13.75;100.00;95944.22;1022653;29;19930;-73
2022/05/11 01:50:59;;;;;;;;;;;;;;;13.73;100.00;95941.06;1025992;28;19922;-73
2022/05/11 01:51:29;;;;;;;;;;;;;;;13.73;100.00;95938.44;1030961;28;19921;-73
2022/05/11 01:51:59;;;;;;;;;;;;;;;13.72;100.00;95931.59;1038811;28;19951;-72
2022/05/11 01:52:29;;;;;;;;;;;;;;;13.73;100.00;95941.88;1040772;28;20457;-72
2022/05/11 01:53:00;;;;;;;;;;;;;;;13.73;100.00;95935.81;1042596;28;19955;-72
2022/05/11 01:53:30;;;;;;;;;;;;;;;13.71;100.00;95936.06;1035178;28;19984;-73
2022/05/11 01:54:00;;;;;;;;;;;;;;;13.70;100.00;95937.13;1031813;28;19905;-72
2022/05/11 01:54:31;;;;;;;;;;;;;;;13.69;100.00;95940.84;1033547;28;20418;-72
2022/05/11 01:55:01;;;;;;;;;;;;;;;13.68;100.00;95933.97;1035042;28;19913;-72
2022/05/11 01:55:34;;;;;;;;;;;;;;;13.68;100.00;95939.25;1035472;28;19913;-74
2022/05/11 01:56:05;;;;;;;;;;;;;;;13.67;100.00;95938.47;1035397;28;19909;-72
2022/05/11 01:56:35;;;;;;;;;;;;;;;13.67;100.00;95935.06;1026899;28;19910;-72
2022/05/11 01:57:06;;;;;;;;;;;;;;;13.68;100.00;95939.25;1026995;28;20598;-72
2022/05/11 01:57:36;;;;;;;;;;;;;;;13.67;100.00;95938.47;1026894;28;19918;-72
2022/05/11 01:58:07;;;;;;;;;;;;;;;13.67;100.00;95937.69;1033649;28;19918;-73
2022/05/11 01:58:37;;;;;;;;;;;;;;;13.67;100.00;95932.41;1035456;28;20000;-72
2022/05/11 01:59:08;;;;;;;;;;;;;;;13.64;100.00;95936.38;1031374;28;19917;-72
2022/05/11 01:59:38;;;;;;;;;;;;;;;13.63;100.00;95931.41;1030612;28;20016;-72
2022/05/11 02:00:09;;;;;;;;;;;;;;;13.63;100.00;95937.47;1031237;28;20005;-73
2022/05/11 02:00:40;;;;;;;;;;;;;;;13.63;100.00;95936.69;1027400;28;19933;-73
2022/05/11 02:01:10;;;;;;;;;;;;;;;13.62;100.00;95937.75;1027389;28;20435;-72
2022/05/11 02:01:41;;;;;;;;;;;;;;;13.61;100.00;95933.50;1023563;28;20521;-72
2022/05/11 02:02:11;;;;;;;;;;;;;;;13.62;100.00;95937.75;1023655;28;20331;-74
2022/05/11 02:02:41;;;;;;;;;;;;;;;13.62;100.00;95935.91;1027633;28;19929;-73
2022/05/11 02:03:12;;;;;;;;;;;;;;;13.60;100.00;95932.72;1023045;28;19926;-72
2022/05/11 02:03:42;;;;;;;;;;;;;;;13.61;100.00;95930.88;1023523;28;19918;-73
2022/05/11 02:08:17;;;;;;;;;;;;;;;13.58;100.00;95936.69;1034102;28;19921;-73
2022/05/11 02:08:47;;;;;;;;;;;;;;;13.57;100.00;95929.88;1036385;28;19948;-72
2022/05/11 02:09:18;;;;;;;;;;;;;;;13.57;100.00;95935.13;1039423;28;20571;-72
2022/05/11 02:09:48;;;;;;;;;;;;;;;13.54;100.00;95930.41;1041104;28;20772;-72
2022/05/11 02:10:19;;;;;;;;;;;;;;;13.53;100.00;95942.03;1043674;28;20340;-73
2022/05/11 02:10:49;;;;;;;;;;;;;;;13.54;100.00;95933.06;1043571;28;19952;-72
2022/05/11 02:11:20;;;;;;;;;;;;;;;13.53;100.00;95934.13;1035382;28;20005;-72
2022/05/11 02:11:50;;;;;;;;;;;;;;;13.53;100.00;95939.41;1031064;28;19964;-72
2022/05/11 02:12:21;;;;;;;;;;;;;;;13.52;100.00;95935.19;1031285;28;19914;-72
2022/05/11 02:12:51;;;;;;;;;;;;;;;13.51;100.00;95939.66;1027448;28;19918;-73
2022/05/11 02:13:21;;;;;;;;;;;;;;;13.52;100.00;95940.47;1033125;28;19984;-73
2022/05/11 02:13:53;;;;;;;;;;;;;;;13.51;100.00;95937.03;1034169;28;19913;-72
2022/05/11 02:14:23;;;;;;;;;;;;;;;13.51;100.00;95934.38;1031404;28;19914;-73
2022/05/11 02:14:53;;;;;;;;;;;;;;;13.50;100.00;95943.38;1023022;28;19914;-72
2022/05/11 02:15:24;;;;;;;;;;;;;;;13.51;100.00;95944.16;1023748;28;19937;-73
2022/05/11 02:15:54;;;;;;;;;;;;;;;13.49;100.00;95946.28;1031377;28;20458;-72
2022/05/11 02:16:25;;;;;;;;;;;;;;;13.49;100.00;95941.00;1031502;28;19910;-72
2022/05/11 02:16:55;;;;;;;;;;;;;;;13.49;100.00;95941.78;1031047;28;19953;-72
2022/05/11 02:17:25;;;;;;;;;;;;;;;13.50;100.00;95950.50;1023334;29;19923;-72
2022/05/11 02:17:56;;;;;;;;;;;;;;;13.48;100.00;95945.50;1023338;28;19930;-72
2022/05/11 02:18:26;;;;;;;;;;;;;;;13.49;100.00;95947.06;1024880;28;19929;-73
2022/05/11 02:18:56;;;;;;;;;;;;;;;13.49;100.00;95941.78;1027190;28;19918;-73
2022/05/11 02:19:28;;;;;;;;;;;;;;;13.48;100.00;95947.31;1031495;28;19922;-74
2022/05/11 02:19:58;;;;;;;;;;;;;;;13.47;100.00;95945.75;1026311;28;19914;-71
2022/05/11 02:20:28;;;;;;;;;;;;;;;13.47;100.00;95949.19;1027474;28;19918;-72
2022/05/11 02:20:59;;;;;;;;;;;;;;;13.47;100.00;95954.47;1031321;28;20806;-72
2022/05/11 02:21:30;;;;;;;;;;;;;;;13.46;100.00;95937.06;1023416;28;20324;-72
2022/05/11 02:22:00;;;;;;;;;;;;;;;13.44;100.00;95953.16;1024123;28;19996;-73
2022/05/11 02:22:30;;;;;;;;;;;;;;;13.46;100.00;95944.19;1027614;28;19957;-72
2022/05/11 02:23:00;;;;;;;;;;;;;;;13.43;100.00;95948.94;1031310;28;19921;-72
2022/05/11 02:23:31;;;;;;;;;;;;;;;13.45;100.00;95948.69;1037097;28;19921;-72
2022/05/11 02:24:01;;;;;;;;;;;;;;;13.44;100.00;95947.09;1035343;28;20279;-73
2022/05/11 02:24:31;;;;;;;;;;;;;;;13.42;100.00;95947.38;1031323;28;20469;-71
2022/05/11 02:25:02;;;;;;;;;;;;;;;13.44;100.00;95950.50;1035518;28;19920;-73
2022/05/11 02:25:33;;;;;;;;;;;;;;;13.44;100.00;95952.38;1031448;28;19997;-72
2022/05/11 02:26:04;;;;;;;;;;;;;;;13.42;100.00;95947.38;1031407;28;20393;-72
2022/05/11 02:26:34;;;;;;;;;;;;;;;13.43;100.00;95948.94;1036154;28;20089;-72
2022/05/11 02:27:04;;;;;;;;;;;;;;;13.43;100.00;95943.69;1032106;28;20366;-73
2022/05/11 02:27:35;;;;;;;;;;;;;;;13.44;100.00;95955.78;1036462;28;20502;-71
2022/05/11 02:28:05;;;;;;;;;;;;;;;13.43;100.00;95948.16;1036166;28;20008;-72
2022/05/11 02:28:35;;;;;;;;;;;;;;;13.43;100.00;95948.16;1034518;28;20612;-72
2022/05/11 02:29:06;;;;;;;;;;;;;;;13.43;100.00;95948.16;1032097;28;20005;-72
2022/05/11 02:29:36;;;;;;;;;;;;;;;13.43;100.00;95948.16;1031637;28;20295;-72
2022/05/11 02:30:07;;;;;;;;;;;;;;;13.42;100.00;95942.13;1035908;28;20483;-72
2022/05/11 02:30:38;;;;;;;;;;;;;;;13.42;100.00;95942.13;1035966;28;20458;-72
2022/05/11 02:31:11;;;;;;;;;;;;;;;13.43;100.00;95943.69;1031864;28;20664;-73
2022/05/11 02:31:41;;;;;;;;;;;;;;;13.43;100.00;95954.22;1032187;28;19928;-73
2022/05/11 02:32:12;;;;;;;;;;;;;;;13.42;100.00;95951.88;1032156;28;19918;-72
2022/05/11 02:32:42;;;;;;;;;;;;;;;13.41;100.00;95945.00;1028272;28;19933;-72
2022/05/11 02:33:12;;;;;;;;;;;;;;;13.40;100.00;95944.22;1031922;28;19922;-72
2022/05/11 02:33:42;;;;;;;;;;;;;;;13.41;100.00;95950.28;1023852;29;19915;-73
2022/05/11 02:35:12;;;;;;;;;;;;;;;13.39;100.00;95947.94;1027936;28;19918;-72
2022/05/11 02:35:12;;;;;;;;;;;;;;;13.38;100.00;95951.63;1031026;28;20343;-72
2022/05/11 02:35:42;;;;;;;;;;;;;;;13.38;100.00;95950.81;1035636;28;19921;-73
2022/05/11 02:36:13;;;;;;;;;;;;;;;13.37;100.00;95947.41;1036042;28;20346;-72
2022/05/11 02:36:43;;;;;;;;;;;;;;;13.37;100.00;95944.78;1036671;28;19922;-73
2022/05/11 02:37:13;;;;;;;;;;;;;;;13.36;100.00;95940.56;1040162;28;19909;-73
2022/05/11 02:37:47;;;;;;;;;;;;;;;13.35;100.00;95941.63;1036018;28;20483;-72
2022/05/11 02:38:22;;;;;;;;;;;;;;;13.36;100.00;95947.69;1027944;28;19914;-72
2022/05/11 02:38:53;;;;;;;;;;;;;;;13.35;100.00;95948.75;1023873;28;19911;-71
2022/05/11 02:39:23;;;;;;;;;;;;;;;13.34;100.00;95945.31;1025119;28;19914;-72
2022/05/11 02:39:54;;;;;;;;;;;;;;;13.34;100.00;95950.59;1028145;28;20014;-72
2022/05/11 02:40:25;;;;;;;;;;;;;;;13.33;100.00;95946.38;1028022;28;20387;-72
2022/05/11 02:40:55;;;;;;;;;;;;;;;13.31;100.00;95940.63;1027930;28;19917;-72
2022/05/11 02:41:26;;;;;;;;;;;;;;;13.29;100.00;95941.94;1028371;28;19910;-72
2022/05/11 02:41:56;;;;;;;;;;;;;;;13.29;100.00;95947.22;1032055;28;19918;-72
2022/05/11 02:42:26;;;;;;;;;;;;;;;13.28;100.00;95940.34;1032007;28;19949;-73
2022/05/11 02:42:57;;;;;;;;;;;;;;;13.26;100.00;95943.28;1036056;28;20509;-72
2022/05/11 02:43:27;;;;;;;;;;;;;;;13.27;100.00;95947.47;1036132;28;19929;-73
2022/05/11 02:43:57;;;;;;;;;;;;;;;13.25;100.00;95946.19;1030078;28;19914;-72
2022/05/11 02:44:28;;;;;;;;;;;;;;;13.24;100.00;95942.75;1032396;28;19965;-73
2022/05/11 02:44:58;;;;;;;;;;;;;;;13.21;100.00;95940.63;1035919;28;19914;-72
2022/05/11 02:45:29;;;;;;;;;;;;;;;13.20;100.00;95944.34;1035851;28;19914;-72
2022/05/11 02:46:00;;;;;;;;;;;;;;;13.18;100.00;95944.63;1032004;28;20537;-72
2022/05/11 02:46:30;;;;;;;;;;;;;;;13.18;100.00;95947.25;1031981;28;20332;-72